Time;durP1;ratioP1;P1;durP2;ratioP2;P2;SDS_P1;SDS_P2;PMS_P1;PMS_P2;Temp;Humidity;BMP_temperature;BMP_pressure;BME280_temperature;BME280_humidity;BME280_pressure;Samples;Min_cycle;Max_cycle;Signal;HPM_P1;HPM_P2
2022/05/04 00:39:54;;;;;;;8.65;6.00;;;;;;;10.13;100.00;94471.25;6044457;22;19997;-90
2022/05/04 00:42:21;;;;;;;11.10;5.63;;;;;;;10.29;100.00;94466.78;4998896;28;20327;-90
2022/05/04 00:44:49;;;;;;;9.48;5.82;;;;;;;10.18;100.00;94470.44;4982765;28;20042;-90
2022/05/04 00:47:15;;;;;;;8.93;5.63;;;;;;;10.24;100.00;94476.47;4983404;28;20034;-90
2022/05/04 00:49:41;;;;;;;8.52;5.90;;;;;;;10.17;100.00;94471.47;4983558;28;20115;-89
2022/05/04 00:52:08;;;;;;;14.88;6.25;;;;;;;10.14;100.00;94474.63;4986979;28;20036;-90
2022/05/04 00:54:35;;;;;;;10.98;5.72;;;;;;;10.21;100.00;94469.13;4990277;28;20038;-90
2022/05/04 00:57:02;;;;;;;8.82;6.18;;;;;;;10.27;100.00;94474.13;4970050;28;20125;-90
2022/05/04 00:59:29;;;;;;;9.20;6.03;;;;;;;10.27;100.00;94468.09;4978716;28;20277;-90
2022/05/04 01:01:55;;;;;;;10.38;6.00;;;;;;;10.43;100.00;94474.94;4983165;28;20073;-89
2022/05/04 01:04:21;;;;;;;11.32;5.82;;;;;;;10.28;100.00;94467.81;4976774;28;20034;-90
2022/05/04 01:06:46;;;;;;;9.05;5.88;;;;;;;10.18;100.00;94473.06;4983134;28;20081;-90
2022/05/04 01:09:15;;;;;;;11.02;6.40;;;;;;;10.26;100.00;94469.94;4982853;28;20346;-90
2022/05/04 01:11:41;;;;;;;10.20;6.40;;;;;;;9.77;100.00;94473.81;4983166;28;20042;-90
2022/05/04 01:14:09;;;;;;;10.23;6.22;;;;;;;9.58;100.00;94463.03;4982620;28;20040;-90
2022/05/04 01:16:36;;;;;;;11.02;6.50;;;;;;;9.55;100.00;94464.34;4967076;28;20041;-90
2022/05/04 01:19:03;;;;;;;10.63;6.38;;;;;;;9.39;100.00;94452.25;4966495;28;20041;-91
2022/05/04 01:21:29;;;;;;;10.38;6.15;;;;;;;9.64;100.00;94464.63;4966636;28;20129;-91
2022/05/04 01:23:57;;;;;;;11.07;6.03;;;;;;;9.58;100.00;94470.88;4966304;28;20124;-91
2022/05/04 01:26:23;;;;;;;9.82;6.40;;;;;;;9.70;100.00;94466.19;4982570;28;20455;-91
2022/05/04 01:28:49;;;;;;;9.10;5.72;;;;;;;9.31;100.00;94464.78;4966233;28;20078;-91
2022/05/04 01:31:20;;;;;;;9.18;5.90;;;;;;;9.15;100.00;94465.78;4966753;28;20094;-91
2022/05/04 01:33:45;;;;;;;13.43;6.40;;;;;;;9.18;100.00;94468.69;4966297;28;20100;-91
2022/05/04 01:36:11;;;;;;;10.38;6.20;;;;;;;9.10;100.00;94466.53;4966246;28;20034;-91
2022/05/04 01:38:36;;;;;;;14.63;6.68;;;;;;;9.10;100.00;94471.78;4966002;28;20034;-92
2022/05/04 01:41:02;;;;;;;10.35;6.43;;;;;;;9.12;100.00;94480.13;4966309;28;20038;-91
2022/05/04 01:43:28;;;;;;;10.52;6.00;;;;;;;9.24;100.00;94472.06;4966297;28;20180;-91
2022/05/04 01:45:54;;;;;;;10.07;6.20;;;;;;;9.30;100.00;94467.66;4966684;28;20453;-91
2022/05/04 01:48:20;;;;;;;11.20;6.28;;;;;;;9.35;100.00;94467.69;4982594;28;20030;-90
2022/05/04 01:50:45;;;;;;;10.30;5.88;;;;;;;9.44;100.00;94475.81;4966220;28;20089;-91
2022/05/04 01:53:11;;;;;;;10.75;6.47;;;;;;;9.24;100.00;94466.84;4982147;28;20101;-91
2022/05/04 01:55:36;;;;;;;9.60;6.10;;;;;;;9.36;100.00;94469.25;4981938;28;20038;-91
2022/05/04 01:58:05;;;;;;;9.50;6.38;;;;;;;9.48;100.00;94472.44;4982060;28;20034;-91
2022/05/04 02:00:31;;;;;;;8.45;5.85;;;;;;;9.46;100.00;94473.72;4981953;28;20351;-91
2022/05/04 02:02:58;;;;;;;8.68;5.97;;;;;;;9.43;100.00;94474.25;4981972;28;20038;-91
2022/05/04 02:05:24;;;;;;;8.75;5.75;;;;;;;9.45;100.00;94472.16;4966183;28;20030;-91
2022/05/04 02:07:49;;;;;;;12.77;5.80;;;;;;;9.52;100.00;94472.69;4965853;28;20133;-91
2022/05/04 02:10:15;;;;;;;9.48;5.78;;;;;;;9.14;100.00;94470.22;4966259;28;20053;-91
2022/05/04 02:12:42;;;;;;;10.80;6.22;;;;;;;8.84;100.00;94473.47;4965595;28;20034;-91
2022/05/04 02:15:09;;;;;;;9.05;6.35;;;;;;;8.91;100.00;94467.00;4981774;28;20065;-91
2022/05/04 02:17:38;;;;;;;9.52;5.90;;;;;;;9.04;100.00;94463.13;4981934;28;20041;-91
2022/05/04 02:20:05;;;;;;;9.43;6.20;;;;;;;8.93;100.00;94464.09;4981611;28;20034;-91
2022/05/04 02:22:30;;;;;;;9.07;6.65;;;;;;;9.01;100.00;94473.28;4981688;28;20042;-90
2022/05/04 02:24:56;;;;;;;8.40;5.45;;;;;;;9.10;100.00;94469.16;4965406;28;20034;-90
2022/05/04 02:27:21;;;;;;;13.77;6.32;;;;;;;9.07;100.00;94461.84;4998680;28;20102;-90
2022/05/04 02:29:47;;;;;;;14.15;6.05;;;;;;;9.06;100.00;94465.50;4998730;28;20489;-91
2022/05/04 02:32:12;;;;;;;9.15;6.43;;;;;;;8.84;100.00;94465.66;4998738;28;20035;-90
2022/05/04 02:37:54;;;;;;;10.23;6.88;;;;;;;8.60;100.00;94466.03;4998580;28;20034;-90
2022/05/04 02:40:08;;;;;;;9.10;6.18;;;;;;;8.75;100.00;94465.31;4998329;28;20041;-90
2022/05/04 02:42:34;;;;;;;10.52;6.78;;;;;;;8.79;100.00;94463.78;4999000;28;20328;-90
2022/05/04 02:44:59;;;;;;;8.55;6.07;;;;;;;8.73;100.00;94457.75;4998516;28;20045;-90
2022/05/04 02:47:25;;;;;;;13.05;7.10;;;;;;;8.73;100.00;94462.97;4993775;28;20076;-90
2022/05/04 02:49:50;;;;;;;11.45;6.97;;;;;;;8.47;100.00;94469.84;4999262;28;20041;-90
2022/05/04 02:52:29;;;;;;;16.35;6.80;;;;;;;8.28;100.00;94477.25;5005627;28;20041;-90
2022/05/04 02:54:54;;;;;;;10.48;6.85;;;;;;;8.26;100.00;94464.44;5004222;28;20029;-90
2022/05/04 02:57:20;;;;;;;12.32;7.75;;;;;;;8.12;100.00;94473.72;5012593;28;20037;-90
2022/05/04 02:59:45;;;;;;;16.58;7.68;;;;;;;8.21;100.00;94472.25;5017749;28;20120;-90
2022/05/04 03:02:29;;;;;;;10.45;7.50;;;;;;;8.44;100.00;94465.09;5017955;28;20034;-90
2022/05/04 03:05:14;;;;;;;10.77;6.75;;;;;;;8.51;100.00;94470.94;5017666;28;20068;-90
2022/05/04 03:07:39;;;;;;;10.82;7.15;;;;;;;8.53;100.00;94473.28;4984007;28;20029;-89
2022/05/04 03:10:06;;;;;;;9.35;6.63;;;;;;;8.55;100.00;94477.22;4984118;28;20025;-90
2022/05/04 03:12:31;;;;;;;11.18;7.28;;;;;;;8.62;100.00;94475.19;4999096;28;20423;-90
2022/05/04 03:14:57;;;;;;;12.32;7.00;;;;;;;8.75;100.00;94476.56;4983930;28;20026;-90
2022/05/04 03:17:22;;;;;;;10.68;6.70;;;;;;;8.76;100.00;94478.13;4984203;28;20103;-90
2022/05/04 03:19:48;;;;;;;8.95;6.63;;;;;;;8.84;100.00;94468.25;4983562;28;20029;-90
2022/05/04 03:22:15;;;;;;;14.30;7.03;;;;;;;8.65;100.00;94475.72;4983765;28;20044;-90
2022/05/04 03:24:40;;;;;;;10.80;6.63;;;;;;;8.61;100.00;94476.22;4999780;28;20414;-90
2022/05/04 03:27:07;;;;;;;10.60;6.88;;;;;;;8.65;100.00;94470.50;4984146;28;20048;-91
2022/05/04 03:29:33;;;;;;;10.23;6.40;;;;;;;8.72;100.00;94476.28;4983810;28;20036;-90
2022/05/04 03:31:58;;;;;;;11.38;7.03;;;;;;;8.53;100.00;94474.06;4983644;28;20120;-90
2022/05/04 03:34:24;;;;;;;9.32;6.78;;;;;;;8.51;100.00;94481.38;4983576;28;20083;-90
2022/05/04 03:36:49;;;;;;;9.93;6.47;;;;;;;8.49;100.00;94478.19;4999662;28;20029;-90
2022/05/04 03:39:15;;;;;;;11.52;6.68;;;;;;;8.53;100.00;94475.88;4999958;28;20088;-91
2022/05/04 03:41:40;;;;;;;12.18;6.80;;;;;;;8.59;100.00;94478.28;4999460;28;20033;-90
2022/05/04 03:44:06;;;;;;;9.63;6.53;;;;;;;8.53;100.00;94475.88;4999736;28;20066;-90
2022/05/04 03:46:42;;;;;;;11.50;7.80;;;;;;;8.35;100.00;94472.59;4999898;28;20030;-91
2022/05/04 03:49:08;;;;;;;15.50;7.50;;;;;;;8.26;100.00;94480.13;4983262;28;20038;-90
2022/05/04 03:51:34;;;;;;;12.35;7.10;;;;;;;8.21;100.00;94470.41;4982228;28;20079;-90
2022/05/04 03:53:59;;;;;;;11.10;7.63;;;;;;;8.24;100.00;94476.97;4999474;28;20033;-90
2022/05/04 03:56:25;;;;;;;13.00;7.68;;;;;;;8.07;100.00;94479.69;4999323;28;20423;-90
2022/05/04 03:58:50;;;;;;;13.05;8.45;;;;;;;8.16;100.00;94486.03;4999618;28;20064;-90
2022/05/04 04:01:17;;;;;;;11.13;7.38;;;;;;;8.02;100.00;94482.25;4983432;28;20439;-90
2022/05/04 04:03:43;;;;;;;15.32;7.25;;;;;;;8.17;100.00;94487.63;4999346;28;20033;-90
2022/05/04 04:06:08;;;;;;;11.70;6.60;;;;;;;8.05;100.00;94484.38;4999496;28;20030;-90
2022/05/04 04:08:34;;;;;;;12.30;7.57;;;;;;;8.12;100.00;94484.97;4999269;28;20044;-90
2022/05/04 04:10:59;;;;;;;12.55;8.38;;;;;;;8.18;100.00;94491.03;4980026;28;20424;-90
2022/05/04 04:13:25;;;;;;;13.05;7.53;;;;;;;8.13;100.00;94494.38;4979756;28;20054;-90
2022/05/04 04:15:51;;;;;;;10.98;7.43;;;;;;;8.26;100.00;94501.00;4979657;28;20030;-90
2022/05/04 04:18:27;;;;;;;12.40;7.63;;;;;;;8.28;100.00;94503.38;4984460;28;20350;-90
2022/05/04 04:23:38;;;;;;;10.35;7.38;;;;;;;8.54;100.00;94506.97;5002458;28;20033;-91
2022/05/04 04:26:05;;;;;;;13.43;8.13;;;;;;;8.62;100.00;94501.31;4987144;28;20025;-91
2022/05/04 04:28:40;;;;;;;11.05;7.32;;;;;;;8.67;100.00;94499.75;4987188;28;20033;-91
2022/05/04 04:31:10;;;;;;;10.38;7.13;;;;;;;8.73;100.00;94501.34;4987298;28;20026;-91
2022/05/04 04:33:36;;;;;;;12.00;6.97;;;;;;;8.88;100.00;94508.50;5003446;28;20022;-93
2022/05/04 04:36:02;;;;;;;14.75;6.85;;;;;;;8.69;100.00;94503.69;5003124;28;20450;-92
2022/05/04 04:38:28;;;;;;;9.75;6.40;;;;;;;8.80;100.00;94503.75;5003626;28;20030;-92
2022/05/04 04:40:55;;;;;;;11.18;7.28;;;;;;;8.92;100.00;94506.94;4987162;28;20029;-91
2022/05/04 04:43:21;;;;;;;12.38;7.55;;;;;;;8.81;100.00;94511.34;5020442;28;20489;-91
2022/05/04 04:45:47;;;;;;;11.68;7.25;;;;;;;8.86;100.00;94523.66;4986904;28;20103;-91
2022/05/04 04:48:15;;;;;;;10.82;6.18;;;;;;;8.83;100.00;94518.94;4993072;28;20168;-92
2022/05/04 04:50:45;;;;;;;9.13;6.10;;;;;;;8.98;100.00;94518.22;5000693;28;20109;-92
2022/05/04 04:53:10;;;;;;;12.68;6.68;;;;;;;9.16;100.00;94517.03;4967627;28;20427;-92
2022/05/04 04:55:36;;;;;;;12.00;6.10;;;;;;;9.25;100.00;94518.09;4983397;28;20034;-93
2022/05/04 04:58:02;;;;;;;12.10;6.30;;;;;;;9.55;100.00;94514.06;4967566;28;20030;-91
2022/05/04 05:00:27;;;;;;;9.50;5.88;;;;;;;9.93;100.00;94523.56;4983397;28;20121;-92
2022/05/04 05:03:06;;;;;;;8.80;5.65;;;;;;;10.29;100.00;94527.00;4983093;28;20501;-92
2022/05/04 05:05:32;;;;;;;10.70;5.53;;;;;;;10.59;100.00;94527.31;4983127;28;20033;-92
2022/05/04 05:07:58;;;;;;;7.72;5.50;;;;;;;10.87;100.00;94527.81;4967143;28;20041;-92
2022/05/04 05:10:23;;;;;;;7.68;5.15;;;;;;;11.07;100.00;94528.81;4982938;28;20030;-91
2022/05/04 05:12:53;;;;;;;7.00;4.90;;;;;;;11.17;100.00;94540.06;4966788;28;20026;-91
2022/05/04 05:18:04;;;;;;;7.15;5.10;;;;;;;11.27;100.00;94535.84;5000304;28;20092;-92
2022/05/04 05:20:30;;;;;;;9.60;5.63;;;;;;;11.28;100.00;94540.03;4982797;28;20435;-92
2022/05/04 05:22:57;;;;;;;7.70;5.18;;;;;;;10.84;100.00;94546.69;4982839;28;20030;-91
2022/05/04 05:25:22;;;;;;;8.95;5.15;;;;;;;10.84;100.00;94542.22;4982692;28;20312;-92
2022/05/04 05:27:48;;;;;;;9.43;5.80;;;;;;;10.59;100.00;94543.81;4966290;28;20033;-92
2022/05/04 05:30:13;;;;;;;9.20;5.18;;;;;;;10.78;100.00;94545.91;4982560;28;20034;-90
2022/05/04 05:32:45;;;;;;;7.25;5.05;;;;;;;11.28;100.00;94547.91;4982487;28;20023;-91
2022/05/04 05:35:10;;;;;;;7.80;4.90;;;;;;;11.13;100.00;94546.13;4999182;28;20026;-91
2022/05/04 05:37:36;;;;;;;11.88;5.60;;;;;;;11.34;100.00;94551.31;4982680;28;20037;-91
2022/05/04 05:40:02;;;;;;;7.88;4.85;;;;;;;11.45;100.00;94551.00;4982330;28;20030;-92
2022/05/04 05:42:28;;;;;;;12.18;5.43;;;;;;;11.11;100.00;94550.81;4966247;28;20026;-92
2022/05/04 05:44:54;;;;;;;6.72;4.93;;;;;;;11.52;100.00;94552.56;4999514;28;20108;-91
2022/05/04 05:47:20;;;;;;;7.13;5.18;;;;;;;11.36;100.00;94546.56;4982155;28;20038;-91
2022/05/04 05:49:45;;;;;;;8.07;5.32;;;;;;;11.44;100.00;94544.19;4982465;28;20431;-91
2022/05/04 05:52:11;;;;;;;10.13;6.18;;;;;;;11.76;100.00;94544.84;4982288;28;20428;-91
2022/05/04 05:54:36;;;;;;;8.07;5.40;;;;;;;11.58;100.00;94562.78;4966170;28;20042;-92
2022/05/04 05:57:02;;;;;;;7.07;5.13;;;;;;;11.87;100.00;94556.88;4982349;28;20027;-91
2022/05/04 05:59:28;;;;;;;8.63;5.65;;;;;;;11.69;100.00;94560.88;4966574;28;20042;-91
2022/05/04 06:01:53;;;;;;;8.18;6.20;;;;;;;11.28;100.00;94563.66;4982075;28;20538;-91
2022/05/04 06:04:19;;;;;;;8.65;5.38;;;;;;;11.85;100.00;94560.81;4981790;28;20030;-91
2022/05/04 06:06:46;;;;;;;9.38;5.63;;;;;;;12.07;100.00;94564.94;4982198;28;20049;-91
2022/05/04 06:09:11;;;;;;;8.15;5.65;;;;;;;12.47;100.00;94563.09;4982429;28;20026;-92
2022/05/04 06:11:37;;;;;;;10.32;5.30;;;;;;;12.62;100.00;94564.84;4982015;28;20089;-91
2022/05/04 06:14:02;;;;;;;7.10;5.18;;;;;;;12.93;100.00;94569.84;4999019;28;20431;-91
2022/05/04 06:16:28;;;;;;;7.53;4.60;;;;;;;13.14;100.00;94567.03;4981755;28;20030;-92
2022/05/04 06:18:54;;;;;;;7.43;4.80;;;;;;;13.21;100.00;94569.34;4981747;28;20030;-91
2022/05/04 06:21:20;;;;;;;8.77;4.97;;;;;;;13.29;100.00;94563.47;4981643;28;20030;-92
2022/05/04 06:23:45;;;;;;;8.20;4.57;;;;;;;13.43;100.00;94556.50;4965639;28;20339;-91
2022/05/04 06:26:11;;;;;;;9.25;4.60;;;;;;;13.50;100.00;94564.06;4981722;28;20317;-92
2022/05/04 06:28:36;;;;;;;8.27;5.07;;;;;;;13.46;100.00;94559.63;4965613;28;20438;-92
2022/05/04 06:36:30;;;;;;;8.65;5.20;;;;;;;13.61;100.00;94564.72;4998766;28;20041;-91
2022/05/04 06:38:56;;;;;;;7.10;4.93;;;;;;;13.68;100.00;94559.13;4965568;28;20124;-92
2022/05/04 06:41:22;;;;;;;9.35;5.20;;;;;;;13.71;100.00;94563.84;4965298;28;20033;-91
2022/05/04 06:43:48;;;;;;;8.43;4.90;;;;;;;13.65;100.00;94564.94;4965131;28;20030;-91
2022/05/04 06:46:15;;;;;;;7.28;5.20;;;;;;;13.77;100.00;94565.31;4965365;28;20423;-91
2022/05/04 06:48:40;;;;;;;6.38;4.65;;;;;;;13.35;100.00;94565.00;4980282;28;20343;-91
2022/05/04 06:51:06;;;;;;;11.10;5.03;;;;;;;13.53;100.00;94562.72;4965328;28;20030;-92
2022/05/04 06:53:32;;;;;;;9.27;5.05;;;;;;;13.74;100.00;94560.63;4965142;28;20323;-91
2022/05/04 06:55:58;;;;;;;7.05;4.95;;;;;;;13.88;100.00;94560.72;4965451;28;20033;-91
2022/05/04 06:58:23;;;;;;;7.57;4.80;;;;;;;13.83;100.00;94558.16;4965380;28;20022;-91
2022/05/04 07:00:49;;;;;;;7.82;4.90;;;;;;;13.73;100.00;94566.16;4980865;28;20335;-91
2022/05/04 07:03:14;;;;;;;9.57;4.93;;;;;;;13.84;100.00;94567.63;4965074;28;20375;-91
2022/05/04 07:05:40;;;;;;;8.38;5.00;;;;;;;14.05;100.00;94568.16;4980722;28;20034;-91
2022/05/04 07:08:06;;;;;;;8.30;4.65;;;;;;;14.04;100.00;94573.69;4964888;28;20427;-92
2022/05/04 07:10:31;;;;;;;10.43;4.85;;;;;;;13.98;100.00;94573.75;4965157;28;20121;-92
2022/05/04 07:12:57;;;;;;;6.85;4.75;;;;;;;13.88;100.00;94575.75;4980602;28;20025;-92
2022/05/04 07:15:22;;;;;;;7.10;4.35;;;;;;;14.23;100.00;94576.34;4983157;28;20026;-92
2022/05/04 07:17:48;;;;;;;9.15;4.93;;;;;;;14.24;100.00;94572.63;4964972;28;20026;-92
2022/05/04 07:20:13;;;;;;;10.75;5.07;;;;;;;13.88;100.00;94575.75;4980700;28;20026;-93
2022/05/04 07:22:39;;;;;;;9.38;5.20;;;;;;;14.10;100.00;94575.97;4980541;28;20033;-92
2022/05/04 07:25:05;;;;;;;8.25;4.95;;;;;;;14.31;100.00;94570.44;4998157;28;20026;-92
2022/05/04 07:27:30;;;;;;;8.20;4.95;;;;;;;14.49;100.00;94566.22;4997950;28;20027;-93
2022/05/04 07:29:56;;;;;;;8.27;4.88;;;;;;;14.68;100.00;94570.69;4997837;28;20121;-92
2022/05/04 07:32:44;;;;;;;12.82;5.20;;;;;;;14.88;100.00;94569.59;4980515;28;20348;-93
2022/05/04 07:35:10;;;;;;;16.45;5.10;;;;;;;15.05;100.00;94574.31;5000521;28;20100;-94
2022/05/04 07:37:35;;;;;;;8.02;4.78;;;;;;;14.90;100.00;94579.84;5017985;28;20438;-94
2022/05/04 07:46:07;;;;;;;6.57;4.90;;;;;;;15.20;100.00;94585.69;5019475;28;20112;-94
2022/05/04 07:51:54;;;;;;;8.70;5.53;;;;;;;15.04;100.00;94578.03;5017456;28;20469;-94
2022/05/04 07:54:20;;;;;;;12.30;4.70;;;;;;;15.32;100.00;94586.00;5017591;28;20029;-95
2022/05/04 07:56:45;;;;;;;13.30;5.40;;;;;;;15.17;100.00;94584.41;5017241;28;20439;-93
2022/05/04 07:59:14;;;;;;;9.27;4.55;;;;;;;15.23;100.00;94577.97;5005495;28;20066;-94
2022/05/04 08:04:23;;;;;;;5.88;3.78;;;;;;;15.39;100.00;94582.97;4997596;28;20045;-94
2022/05/04 08:06:49;;;;;;;6.10;3.85;;;;;;;15.54;99.89;94584.56;4964378;28;20034;-95
2022/05/04 08:09:14;;;;;;;6.85;3.80;;;;;;;15.53;100.00;94583.75;4964353;28;20030;-93
2022/05/04 08:11:41;;;;;;;8.52;3.10;;;;;;;15.80;97.56;94578.78;4964303;28;20037;-94
2022/05/04 08:14:07;;;;;;;10.18;3.80;;;;;;;15.80;100.00;94576.16;4963819;28;20531;-94
2022/05/04 08:16:33;;;;;;;7.65;4.25;;;;;;;15.90;95.15;94581.22;4964355;28;20030;-94
2022/05/04 08:19:00;;;;;;;6.72;3.55;;;;;;;15.85;98.38;94583.97;4964202;28;20041;-94
2022/05/04 08:21:26;;;;;;;7.80;3.38;;;;;;;16.00;100.00;94580.25;4964282;28;20037;-93
2022/05/04 08:23:52;;;;;;;6.32;3.50;;;;;;;15.91;100.00;94582.78;4979886;28;20091;-93
2022/05/04 08:26:17;;;;;;;6.60;3.70;;;;;;;16.24;100.00;94593.22;4980095;28;20035;-94
2022/05/04 08:28:43;;;;;;;6.90;3.13;;;;;;;16.24;89.04;94587.94;4980048;28;20030;-94
2022/05/04 08:31:08;;;;;;;4.82;3.40;;;;;;;16.23;100.00;94591.66;4980141;28;20034;-94
2022/05/04 08:33:35;;;;;;;4.97;2.88;;;;;;;16.19;94.29;94590.69;4963931;28;20042;-92
2022/05/04 08:36:01;;;;;;;4.82;3.55;;;;;;;15.79;100.00;94585.16;4980045;28;20031;-93
2022/05/04 08:38:27;;;;;;;7.60;3.70;;;;;;;15.84;100.00;94585.03;4997107;28;20045;-94
2022/05/04 08:40:56;;;;;;;8.65;3.50;;;;;;;16.08;100.00;94594.63;4979862;28;20034;-95
2022/05/04 08:43:25;;;;;;;8.30;3.22;;;;;;;16.12;94.77;94592.97;4979945;28;20122;-94
2022/05/04 08:45:52;;;;;;;6.63;3.10;;;;;;;16.34;100.00;94597.50;4980240;28;20064;-94
2022/05/04 08:48:18;;;;;;;6.93;3.10;;;;;;;16.43;100.00;94587.00;4964035;28;20340;-93
2022/05/04 08:50:44;;;;;;;3.88;2.70;;;;;;;16.67;98.66;94585.97;4963990;28;20037;-93
2022/05/04 08:53:10;;;;;;;5.90;3.33;;;;;;;16.49;82.00;94579.75;4979916;28;20037;-94
2022/05/04 08:55:37;;;;;;;7.43;3.00;;;;;;;16.46;87.01;94583.00;4979828;28;20034;-94
2022/05/04 08:58:03;;;;;;;5.25;2.83;;;;;;;16.62;100.00;94584.22;4980064;28;20347;-95
2022/05/04 09:00:29;;;;;;;9.77;3.47;;;;;;;16.66;88.86;94581.75;4979871;28;20034;-94
2022/05/04 09:02:54;;;;;;;5.68;2.95;;;;;;;16.69;90.11;94578.50;4996970;28;20185;-93
2022/05/04 09:05:25;;;;;;;9.88;3.60;;;;;;;17.11;78.01;94586.25;4979917;28;20026;-93
2022/05/04 09:07:53;;;;;;;5.53;3.13;;;;;;;16.80;79.73;94579.81;4963929;28;20048;-93
2022/05/04 09:10:34;;;;;;;5.05;3.22;;;;;;;16.72;89.31;94577.13;4979791;28;20030;-93
2022/05/04 09:13:00;;;;;;;6.68;3.50;;;;;;;17.15;86.58;94578.50;4967928;28;20045;-95
2022/05/04 09:15:28;;;;;;;5.53;3.50;;;;;;;17.13;84.38;94583.31;4967363;28;20026;-95
2022/05/04 09:17:58;;;;;;;8.15;3.75;;;;;;;16.98;82.96;94579.94;4967377;28;20030;-94
2022/05/04 09:20:45;;;;;;;9.63;3.72;;;;;;;16.81;95.78;94573.44;4983185;28;20038;-94
2022/05/04 09:23:25;;;;;;;7.68;3.70;;;;;;;16.75;85.99;94582.56;4968969;28;20034;-94
2022/05/04 09:25:53;;;;;;;6.28;3.90;;;;;;;16.94;100.00;94584.28;4983145;28;20036;-94
2022/05/04 09:28:20;;;;;;;8.55;4.10;;;;;;;17.39;99.81;94583.44;4983008;28;20031;-93
2022/05/04 09:30:54;;;;;;;8.48;4.05;;;;;;;17.50;86.42;94583.94;4982990;28;20424;-95
2022/05/04 09:33:26;;;;;;;10.80;4.15;;;;;;;17.55;69.91;94581.16;4983164;28;20030;-94
2022/05/04 09:35:52;;;;;;;5.90;3.88;;;;;;;17.89;75.52;94566.44;4983491;28;20034;-93
2022/05/04 09:46:42;;;;;;;5.00;3.20;;;;;;;19.20;76.84;94570.22;4985097;28;20044;-93
2022/05/04 09:49:12;;;;;;;6.28;3.45;;;;;;;19.55;71.12;94566.66;4982562;28;20030;-94
2022/05/04 09:51:39;;;;;;;4.88;2.92;;;;;;;19.35;69.27;94563.59;4982551;28;20030;-93
2022/05/04 09:54:18;;;;;;;5.55;3.25;;;;;;;19.97;65.62;94563.34;4982247;28;20081;-93
2022/05/04 09:56:46;;;;;;;7.63;3.63;;;;;;;19.72;59.47;94563.13;4982737;28;20057;-94
2022/05/04 09:59:14;;;;;;;6.05;3.30;;;;;;;20.17;66.14;94555.72;4982290;28;20034;-94
2022/05/04 10:01:41;;;;;;;6.72;3.65;;;;;;;20.33;63.77;94559.34;4982460;28;20084;-94
2022/05/04 10:04:06;;;;;;;13.00;3.30;;;;;;;19.88;61.82;94560.69;4982796;28;20042;-94
2022/05/04 10:06:32;;;;;;;6.70;4.25;;;;;;;20.22;66.77;94552.84;4993579;28;20124;-94
2022/05/04 10:08:58;;;;;;;7.05;3.03;;;;;;;20.75;57.89;94557.75;5004313;28;20053;-95
2022/05/04 10:11:23;;;;;;;4.82;3.53;;;;;;;21.32;61.39;94553.59;5002722;28;20087;-92
2022/05/04 10:13:55;;;;;;;5.97;3.60;;;;;;;21.60;53.99;94549.50;5001463;28;20037;-94
2022/05/04 10:16:22;;;;;;;6.72;3.40;;;;;;;20.85;60.34;94540.63;4987682;28;20042;-94
2022/05/04 10:18:49;;;;;;;5.78;3.10;;;;;;;21.38;60.82;94540.06;5001739;28;20112;-94
2022/05/04 10:21:16;;;;;;;11.55;3.85;;;;;;;20.29;59.51;94539.03;5001235;28;20096;-93
2022/05/04 10:23:44;;;;;;;6.10;3.17;;;;;;;20.12;60.39;94546.03;5001137;28;20398;-93
2022/05/04 10:26:13;;;;;;;5.40;3.30;;;;;;;20.03;59.29;94540.78;4985225;28;20030;-93
2022/05/04 10:31:29;;;;;;;6.20;3.78;;;;;;;19.20;65.49;94548.19;5003023;28;20469;-93
2022/05/04 10:33:56;;;;;;;5.75;3.88;;;;;;;18.59;66.91;94547.19;4984871;28;20026;-92
2022/05/04 10:36:30;;;;;;;8.35;3.47;;;;;;;17.72;70.79;94547.88;5000646;28;20034;-93
2022/05/04 10:38:57;;;;;;;6.13;4.00;;;;;;;17.85;70.12;94554.13;5000881;28;20085;-93
2022/05/04 10:41:36;;;;;;;7.47;4.00;;;;;;;17.41;87.51;94554.00;4984422;28;20037;-92
2022/05/04 10:44:02;;;;;;;5.63;4.10;;;;;;;17.03;90.54;94560.53;4984045;28;20041;-92
2022/05/04 10:46:30;;;;;;;11.88;4.45;;;;;;;16.61;100.00;94553.53;4984524;28;20030;-92
2022/05/04 10:49:04;;;;;;;13.40;4.60;;;;;;;16.52;100.00;94563.28;4984968;28;20116;-92
2022/05/04 10:51:40;;;;;;;8.00;4.57;;;;;;;16.38;100.00;94558.03;4984820;28;20026;-92
2022/05/04 10:54:13;;;;;;;8.07;4.50;;;;;;;15.61;100.00;94563.81;4984681;28;20029;-92
2022/05/04 10:56:44;;;;;;;7.50;4.13;;;;;;;15.47;100.00;94574.38;5001063;28;20068;-92
2022/05/04 10:59:10;;;;;;;9.55;4.30;;;;;;;15.50;100.00;94575.66;4985027;28;20025;-92
2022/05/04 11:01:39;;;;;;;5.00;3.53;;;;;;;15.20;100.00;94572.47;4984554;28;20137;-93
2022/05/04 11:04:06;;;;;;;6.60;4.03;;;;;;;15.11;100.00;94585.56;5000895;28;20124;-92
2022/05/04 11:06:45;;;;;;;6.75;3.95;;;;;;;14.94;100.00;94573.72;5000811;28;20026;-92
2022/05/04 11:09:12;;;;;;;8.43;4.07;;;;;;;14.40;100.00;94570.56;4984995;28;20025;-93
2022/05/04 11:11:39;;;;;;;7.10;4.00;;;;;;;14.14;100.00;94568.28;5000142;28;20044;-92
2022/05/04 11:14:06;;;;;;;10.85;4.20;;;;;;;14.13;100.00;94570.16;4984347;28;20121;-93
2022/05/04 11:16:32;;;;;;;17.15;4.40;;;;;;;14.11;100.00;94558.31;4984535;28;20109;-93
2022/05/04 11:18:59;;;;;;;10.93;4.85;;;;;;;14.22;100.00;94556.31;5000356;28;20423;-92
2022/05/04 11:21:26;;;;;;;12.55;5.30;;;;;;;13.77;100.00;94565.31;4984337;28;20021;-94
2022/05/04 11:23:53;;;;;;;14.48;4.50;;;;;;;14.43;100.00;94567.34;4984074;28;20026;-94
2022/05/04 11:26:20;;;;;;;9.07;4.68;;;;;;;13.95;100.00;94568.28;4984144;28;20076;-93
2022/05/04 11:28:47;;;;;;;6.80;4.43;;;;;;;14.62;100.00;94563.91;4984221;28;20124;-94
2022/05/04 11:31:12;;;;;;;6.80;3.75;;;;;;;15.06;100.00;94569.84;4984076;28;20026;-93
2022/05/04 11:33:40;;;;;;;6.45;3.67;;;;;;;15.67;100.00;94573.22;4983333;28;20022;-93
2022/05/04 11:36:06;;;;;;;6.13;3.70;;;;;;;16.00;100.00;94580.25;5017465;28;20026;-93
2022/05/04 11:38:31;;;;;;;5.38;3.97;;;;;;;16.07;100.00;94579.88;4999948;28;20025;-93
2022/05/04 11:40:57;;;;;;;6.20;3.92;;;;;;;15.53;100.00;94583.75;5017301;28;20021;-92
2022/05/04 11:43:25;;;;;;;7.18;4.30;;;;;;;15.43;100.00;94577.91;4999564;28;20053;-93
2022/05/04 11:45:50;;;;;;;7.32;4.38;;;;;;;15.75;100.00;94574.38;5017311;28;20047;-93
2022/05/04 11:48:18;;;;;;;10.23;5.90;;;;;;;15.71;100.00;94572.63;4999707;28;20100;-93
2022/05/04 11:50:44;;;;;;;10.98;5.10;;;;;;;16.15;100.00;94576.50;5000159;28;20032;-93
2022/05/04 11:53:10;;;;;;;12.85;5.15;;;;;;;16.15;100.00;94584.44;5017308;28;20334;-93
2022/05/04 11:55:36;;;;;;;9.98;6.00;;;;;;;15.77;100.00;94574.06;5016692;28;20030;-93
2022/05/04 11:58:02;;;;;;;9.63;5.95;;;;;;;15.33;100.00;94582.28;5017267;28;20082;-93
2022/05/04 12:00:27;;;;;;;12.20;7.00;;;;;;;15.48;100.00;94581.22;4983592;28;20100;-93
2022/05/04 12:02:53;;;;;;;11.45;6.95;;;;;;;14.84;100.00;94579.94;5008936;28;20034;-93
2022/05/04 12:05:19;;;;;;;16.83;9.43;;;;;;;15.10;100.00;94576.09;4964333;28;20455;-93
2022/05/04 12:07:44;;;;;;;13.32;7.95;;;;;;;15.17;100.00;94583.63;5007158;28;20034;-93
2022/05/04 12:10:10;;;;;;;13.43;7.45;;;;;;;14.43;100.00;94572.63;4999655;28;20080;-93
2022/05/04 12:12:37;;;;;;;15.18;9.48;;;;;;;14.73;100.00;94575.13;4983074;28;20026;-92
2022/05/04 12:15:04;;;;;;;14.75;9.25;;;;;;;14.70;100.00;94573.81;4987351;28;20026;-94
2022/05/04 12:17:35;;;;;;;14.55;9.63;;;;;;;15.12;100.00;94572.09;4980054;28;20026;-93
2022/05/04 12:20:00;;;;;;;17.13;10.32;;;;;;;14.91;100.00;94562.94;4983951;28;20026;-95
2022/05/04 12:22:26;;;;;;;19.25;9.80;;;;;;;14.74;100.00;94574.81;4973389;28;20037;-94
2022/05/04 12:24:51;;;;;;;15.90;10.02;;;;;;;14.98;100.00;94572.06;4972770;28;20033;-95
2022/05/04 12:27:17;;;;;;;14.23;8.60;;;;;;;15.83;100.00;94565.75;4988004;28;20414;-94
2022/05/04 12:33:28;;;;;;;9.52;5.75;;;;;;;16.79;100.00;94553.66;4990401;28;20024;-96
2022/05/04 12:35:29;;;;;;;6.20;4.50;;;;;;;17.34;100.00;94549.91;4984752;28;20053;-95
2022/05/04 12:37:58;;;;;;;6.50;4.70;;;;;;;18.13;100.00;94546.72;4982177;28;20034;-96
2022/05/04 12:40:27;;;;;;;10.75;5.20;;;;;;;17.65;100.00;94546.47;4977841;28;20034;-96
2022/05/04 12:42:55;;;;;;;8.18;4.70;;;;;;;19.19;100.00;94544.75;4974413;28;20014;-96
2022/05/04 12:45:26;;;;;;;9.55;5.22;;;;;;;18.98;87.33;94546.50;4987140;28;20366;-95